La rose des vents
Donnes mto: Semaine 18/06/07 - 24/06/07 (S 25)
Date Horaire Temp. E. Hum. E. P.atmo. Pluie Vent 1mn Direction Ensoleilleme Ev.Tr. Solaire P. de rose Temp au vent Rafales
18/06/2007 00:00 18,4 C 96 % 1012,6 hPa 0,0 l/m 2,3 km/h (1 Bft) O-NO 0,00 h 0,000 mm 0 W/m 17,8 C 18,4 C 4,0 km/h (1 Bft)
18/06/2007 01:00 17,9 C 96 % 1012,5 hPa 0,0 l/m 3,0 km/h (1 Bft) O-NO 0,00 h 0,000 mm 0 W/m 17,3 C 17,9 C 5,0 km/h (1 Bft)
18/06/2007 02:00 17,5 C 97 % 1012,3 hPa 0,0 l/m 2,0 km/h (1 Bft) O-NO 0,00 h 0,000 mm 0 W/m 16,9 C 17,5 C 3,6 km/h (1 Bft)
18/06/2007 03:00 17,2 C 97 % 1011,8 hPa 0,0 l/m 1,4 km/h (1 Bft) NO 0,00 h 0,000 mm 0 W/m 16,6 C 17,2 C 2,7 km/h (1 Bft)
18/06/2007 04:00 16,8 C 96 % 1011,8 hPa 0,0 l/m 3,5 km/h (1 Bft) O 0,00 h 0,000 mm 0 W/m 16,3 C 16,8 C 5,0 km/h (1 Bft)
18/06/2007 05:00 16,8 C 96 % 1011,8 hPa 0,0 l/m 2,5 km/h (1 Bft) NO 0,00 h 0,000 mm 5 W/m 16,1 C 16,8 C 4,3 km/h (1 Bft)
18/06/2007 06:00 17,0 C 95 % 1012,2 hPa 0,0 l/m 0,5 km/h (0 Bft) NO 0,02 h 0,000 mm 25 W/m 16,2 C 17,0 C 1,7 km/h (1 Bft)
18/06/2007 07:00 18,4 C 93 % 1012,3 hPa 0,0 l/m 0,1 km/h (0 Bft) NE 0,35 h 0,025 mm 127 W/m 17,2 C 18,4 C 0,5 km/h (0 Bft)
18/06/2007 08:00 20,5 C 83 % 1012,6 hPa 0,0 l/m 1,4 km/h (1 Bft) S 0,57 h 0,076 mm 257 W/m 17,6 C 20,5 C 2,8 km/h (1 Bft)
18/06/2007 09:00 22,1 C 81 % 1013,1 hPa 0,0 l/m 3,1 km/h (1 Bft) E 0,68 h 0,152 mm 408 W/m 18,6 C 22,1 C 5,4 km/h (1 Bft)
18/06/2007 10:00 23,4 C 78 % 1013,1 hPa 0,0 l/m 3,9 km/h (1 Bft) E 0,77 h 0,254 mm 442 W/m 19,2 C 23,4 C 6,7 km/h (2 Bft)
18/06/2007 11:00 22,5 C 81 % 1013,5 hPa 0,0 l/m 4,8 km/h (1 Bft) E 0,00 h 0,279 mm 226 W/m 19,2 C 22,5 C 7,1 km/h (2 Bft)
18/06/2007 12:00 23,1 C 79 % 1014,1 hPa 0,0 l/m 3,8 km/h (1 Bft) E 0,12 h 0,152 mm 382 W/m 19,2 C 23,1 C 6,1 km/h (2 Bft)
18/06/2007 13:00 23,6 C 78 % 1014,1 hPa 0,0 l/m 3,9 km/h (1 Bft) E-NE 0,30 h 0,254 mm 380 W/m 19,6 C 23,6 C 6,2 km/h (2 Bft)
18/06/2007 14:00 25,4 C 72 % 1012,9 hPa 0,0 l/m 5,1 km/h (1 Bft) E-NE 0,63 h 0,279 mm 613 W/m 20,0 C 25,4 C 8,2 km/h (2 Bft)
18/06/2007 15:00 25,6 C 70 % 1012,7 hPa 0,0 l/m 6,1 km/h (2 Bft) E 0,40 h 0,406 mm 445 W/m 19,7 C 25,6 C 9,2 km/h (2 Bft)
18/06/2007 16:00 22,6 C 82 % 1013,9 hPa 0,0 l/m 12,0 km/h (2 Bft) E 0,22 h 0,305 mm 305 W/m 19,4 C 22,6 C 17,4 km/h (3 Bft)
18/06/2007 17:00 21,8 C 84 % 1013,8 hPa 0,0 l/m 7,6 km/h (2 Bft) E 0,02 h 0,229 mm 142 W/m 19,0 C 21,8 C 12,5 km/h (3 Bft)
18/06/2007 18:00 21,3 C 86 % 1013,2 hPa 0,0 l/m 5,5 km/h (1 Bft) E 0,00 h 0,102 mm 125 W/m 18,9 C 21,3 C 8,7 km/h (2 Bft)
18/06/2007 19:00 21,0 C 86 % 1012,7 hPa 0,0 l/m 1,9 km/h (1 Bft) E-SE 0,00 h 0,102 mm 80 W/m 18,6 C 21,0 C 4,5 km/h (1 Bft)
18/06/2007 20:00 20,7 C 89 % 1013,2 hPa 0,0 l/m 0,8 km/h (0 Bft) SE 0,30 h 0,051 mm 44 W/m 18,7 C 20,7 C 2,0 km/h (1 Bft)
18/06/2007 21:00 20,0 C 91 % 1013,3 hPa 0,0 l/m 3,5 km/h (1 Bft) O 0,03 h 0,025 mm 9 W/m 18,5 C 20,0 C 5,1 km/h (1 Bft)
18/06/2007 22:00 19,5 C 93 % 1013,8 hPa 0,0 l/m 7,1 km/h (2 Bft) O-NO 0,00 h 0,000 mm 0 W/m 18,4 C 19,5 C 9,4 km/h (2 Bft)
18/06/2007 23:00 19,4 C 91 % 1013,8 hPa 0,0 l/m 7,2 km/h (2 Bft) O-NO 0,00 h 0,025 mm 0 W/m 17,9 C 19,4 C 10,3 km/h (2 Bft)
19/06/2007 00:00 19,6 C 88 % 1012,8 hPa 0,0 l/m 3,7 km/h (1 Bft) E 0,00 h 0,025 mm 0 W/m 17,6 C 19,6 C 5,8 km/h (2 Bft)
19/06/2007 01:00 19,9 C 84 % 1012,3 hPa 0,0 l/m 2,8 km/h (1 Bft) E-NE 0,00 h 0,025 mm 0 W/m 17,1 C 19,9 C 4,9 km/h (1 Bft)
19/06/2007 02:00 19,8 C 87 % 1012,5 hPa 0,0 l/m 3,4 km/h (1 Bft) O-SO 0,00 h 0,025 mm 0 W/m 17,6 C 19,8 C 5,4 km/h (1 Bft)
19/06/2007 03:00 19,3 C 91 % 1011,9 hPa 0,0 l/m 3,2 km/h (1 Bft) O-NO 0,00 h 0,025 mm 0 W/m 17,8 C 19,3 C 4,6 km/h (1 Bft)
19/06/2007 04:00 18,6 C 92 % 1010,9 hPa 0,0 l/m 0,8 km/h (0 Bft) O-NO 0,00 h 0,025 mm 0 W/m 17,2 C 18,6 C 1,8 km/h (1 Bft)
19/06/2007 05:00 18,3 C 93 % 1011,2 hPa 0,0 l/m 4,8 km/h (1 Bft) SO 0,00 h 0,025 mm 7 W/m 17,1 C 18,3 C 6,0 km/h (2 Bft)
19/06/2007 06:00 18,7 C 93 % 1011,5 hPa 0,0 l/m 5,7 km/h (1 Bft) O 0,17 h 0,000 mm 32 W/m 17,5 C 18,7 C 7,2 km/h (2 Bft)
19/06/2007 07:00 19,7 C 88 % 1011,2 hPa 0,0 l/m 3,0 km/h (1 Bft) NO 0,47 h 0,025 mm 139 W/m 17,8 C 19,7 C 5,8 km/h (2 Bft)
19/06/2007 08:00 23,7 C 66 % 1010,8 hPa 0,0 l/m 3,0 km/h (1 Bft) N 0,88 h 0,102 mm 324 W/m 16,8 C 23,7 C 6,2 km/h (2 Bft)
19/06/2007 09:00 26,0 C 57 % 1010,5 hPa 0,0 l/m 6,9 km/h (2 Bft) E 0,98 h 0,229 mm 531 W/m 16,8 C 26,0 C 11,3 km/h (2 Bft)
19/06/2007 10:00 26,6 C 54 % 1010,9 hPa 0,0 l/m 5,2 km/h (1 Bft) E 1,00 h 0,381 mm 654 W/m 16,5 C 26,6 C 9,3 km/h (2 Bft)
19/06/2007 11:00 27,9 C 53 % 1011,8 hPa 0,0 l/m 11,2 km/h (2 Bft) E 1,00 h 0,457 mm 764 W/m 17,5 C 27,9 C 17,6 km/h (3 Bft)
19/06/2007 12:00 29,8 C 45 % 1011,0 hPa 0,0 l/m 15,8 km/h (3 Bft) E-NE 1,00 h 0,584 mm 837 W/m 16,7 C 29,8 C 22,0 km/h (4 Bft)
19/06/2007 13:00 30,2 C 45 % 1010,9 hPa 0,0 l/m 13,2 km/h (3 Bft) E 0,97 h 0,711 mm 867 W/m 17,0 C 30,2 C 19,8 km/h (4 Bft)
19/06/2007 14:00 30,1 C 46 % 1010,8 hPa 0,0 l/m 17,8 km/h (3 Bft) E-NE 0,97 h 0,686 mm 876 W/m 17,3 C 30,1 C 24,9 km/h (4 Bft)
19/06/2007 15:00 30,4 C 43 % 1010,3 hPa 0,0 l/m 21,3 km/h (4 Bft) E-NE 1,00 h 0,737 mm 778 W/m 16,5 C 30,4 C 29,8 km/h (5 Bft)
19/06/2007 16:00 29,1 C 49 % 1010,4 hPa 0,0 l/m 17,7 km/h (3 Bft) E 0,73 h 0,737 mm 603 W/m 17,4 C 29,1 C 24,4 km/h (4 Bft)
19/06/2007 17:00 28,6 C 48 % 1010,5 hPa 0,0 l/m 17,5 km/h (3 Bft) E 0,88 h 0,559 mm 531 W/m 16,5 C 28,6 C 24,7 km/h (4 Bft)
19/06/2007 18:00 28,4 C 46 % 1010,1 hPa 0,0 l/m 18,8 km/h (3 Bft) E-NE 0,83 h 0,508 mm 306 W/m 15,8 C 28,4 C 26,6 km/h (4 Bft)
19/06/2007 19:00 28,7 C 42 % 1009,7 hPa 0,0 l/m 19,7 km/h (3 Bft) E-NE 0,58 h 0,381 mm 152 W/m 14,5 C 28,7 C 27,8 km/h (4 Bft)
19/06/2007 20:00 28,3 C 42 % 1009,9 hPa 0,0 l/m 12,6 km/h (3 Bft) E 0,18 h 0,305 mm 57 W/m 13,9 C 28,3 C 18,4 km/h (3 Bft)
19/06/2007 21:00 25,6 C 55 % 1010,4 hPa 0,0 l/m 8,3 km/h (2 Bft) E 0,08 h 0,178 mm 10 W/m 15,9 C 25,6 C 13,0 km/h (3 Bft)
19/06/2007 22:00 24,8 C 58 % 1011,2 hPa 0,0 l/m 3,0 km/h (1 Bft) N-NE 0,00 h 0,076 mm 0 W/m 16,0 C 24,8 C 5,5 km/h (1 Bft)
19/06/2007 23:00 23,9 C 61 % 1011,2 hPa 0,0 l/m 1,7 km/h (1 Bft) E 0,00 h 0,051 mm 0 W/m 15,8 C 23,9 C 3,3 km/h (1 Bft)
20/06/2007 00:00 23,0 C 63 % 1011,1 hPa 0,0 l/m 2,7 km/h (1 Bft) O 0,00 h 0,051 mm 0 W/m 15,6 C 23,0 C 3,7 km/h (1 Bft)
20/06/2007 01:00 22,7 C 64 % 1011,1 hPa 0,0 l/m 7,0 km/h (2 Bft) SO 0,00 h 0,051 mm 0 W/m 15,4 C 22,7 C 8,3 km/h (2 Bft)
20/06/2007 02:00 21,6 C 74 % 1011,3 hPa 0,0 l/m 7,5 km/h (2 Bft) S-SO 0,00 h 0,076 mm 0 W/m 16,8 C 21,6 C 10,1 km/h (2 Bft)
20/06/2007 03:00 21,3 C 75 % 1011,8 hPa 0,0 l/m 4,3 km/h (1 Bft) SO 0,00 h 0,051 mm 0 W/m 16,7 C 21,3 C 6,4 km/h (2 Bft)
20/06/2007 04:00 20,4 C 77 % 1011,8 hPa 0,0 l/m 3,2 km/h (1 Bft) O-NO 0,00 h 0,051 mm 0 W/m 16,3 C 20,4 C 5,3 km/h (1 Bft)
20/06/2007 05:00 20,5 C 76 % 1011,7 hPa 0,0 l/m 1,6 km/h (1 Bft) O 0,00 h 0,025 mm 8 W/m 16,2 C 20,5 C 2,8 km/h (1 Bft)
20/06/2007 06:00 20,2 C 75 % 1011,5 hPa 0,0 l/m 3,5 km/h (1 Bft) NO 0,13 h 0,025 mm 33 W/m 15,7 C 20,2 C 5,6 km/h (1 Bft)
20/06/2007 07:00 21,6 C 72 % 1011,7 hPa 0,0 l/m 0,4 km/h (0 Bft) NO 0,45 h 0,051 mm 127 W/m 16,3 C 21,6 C 1,1 km/h (1 Bft)
20/06/2007 08:00 24,4 C 64 % 1011,9 hPa 0,0 l/m 1,7 km/h (1 Bft) E 0,97 h 0,076 mm 318 W/m 17,1 C 24,4 C 3,6 km/h (1 Bft)
20/06/2007 09:00 25,6 C 61 % 1011,7 hPa 0,0 l/m 3,4 km/h (1 Bft) E-SE 1,00 h 0,203 mm 497 W/m 17,4 C 25,6 C 6,1 km/h (2 Bft)
20/06/2007 10:00 26,7 C 58 % 1011,7 hPa 0,0 l/m 4,3 km/h (1 Bft) E 1,00 h 0,330 mm 691 W/m 17,6 C 26,7 C 7,3 km/h (2 Bft)
20/06/2007 11:00 27,6 C 55 % 1011,8 hPa 0,0 l/m 7,2 km/h (2 Bft) E-SE 0,83 h 0,457 mm 717 W/m 17,6 C 27,6 C 11,3 km/h (2 Bft)
20/06/2007 12:00 28,4 C 52 % 1011,6 hPa 0,0 l/m 6,8 km/h (2 Bft) E-SE 1,00 h 0,508 mm 853 W/m 17,5 C 28,4 C 11,6 km/h (2 Bft)
20/06/2007 13:00 28,7 C 51 % 1011,3 hPa 0,0 l/m 8,4 km/h (2 Bft) E-SE 1,00 h 0,584 mm 856 W/m 17,6 C 28,7 C 14,6 km/h (3 Bft)
20/06/2007 14:00 29,0 C 50 % 1011,5 hPa 0,0 l/m 7,3 km/h (2 Bft) E 1,00 h 0,635 mm 829 W/m 17,3 C 29,0 C 12,9 km/h (3 Bft)
20/06/2007 15:00 29,2 C 47 % 1011,5 hPa 0,0 l/m 10,1 km/h (2 Bft) E 1,00 h 0,610 mm 768 W/m 16,7 C 29,2 C 14,9 km/h (3 Bft)
20/06/2007 16:00 28,8 C 48 % 1011,3 hPa 0,0 l/m 6,7 km/h (2 Bft) E 1,00 h 0,610 mm 658 W/m 16,5 C 28,8 C 11,0 km/h (2 Bft)
20/06/2007 17:00 28,5 C 46 % 1011,3 hPa 0,0 l/m 5,3 km/h (1 Bft) E-NE 1,00 h 0,508 mm 516 W/m 15,7 C 28,5 C 8,6 km/h (2 Bft)
20/06/2007 18:00 28,6 C 45 % 1010,9 hPa 0,0 l/m 3,9 km/h (1 Bft) NE 1,00 h 0,406 mm 354 W/m 15,6 C 28,6 C 6,0 km/h (2 Bft)
20/06/2007 19:00 26,6 C 58 % 1010,5 hPa 0,0 l/m 2,3 km/h (1 Bft) E-SE 1,00 h 0,279 mm 191 W/m 17,5 C 26,6 C 4,5 km/h (1 Bft)
20/06/2007 20:00 24,4 C 66 % 1010,7 hPa 0,0 l/m 0,2 km/h (0 Bft) E-SE 0,13 h 0,152 mm 49 W/m 17,6 C 24,4 C 0,7 km/h (0 Bft)
20/06/2007 21:00 22,7 C 72 % 1010,8 hPa 0,0 l/m 0,0 km/h (0 Bft) N 0,00 h 0,051 mm 7 W/m 17,4 C 22,7 C 0,1 km/h (0 Bft)
20/06/2007 22:00 21,4 C 80 % 1011,2 hPa 0,0 l/m 0,5 km/h (0 Bft) E-SE 0,00 h 0,000 mm 0 W/m 17,9 C 21,4 C 1,1 km/h (1 Bft)
20/06/2007 23:00 20,4 C 86 % 1011,2 hPa 0,0 l/m 0,5 km/h (0 Bft) S-SE 0,00 h 0,025 mm 0 W/m 17,9 C 20,4 C 1,3 km/h (1 Bft)
21/06/2007 00:00 19,8 C 87 % 1011,1 hPa 0,0 l/m 0,0 km/h (0 Bft) NE 0,00 h 0,025 mm 0 W/m 17,6 C 19,8 C 0,2 km/h (0 Bft)
21/06/2007 01:00 19,6 C 89 % 1010,8 hPa 0,0 l/m 1,9 km/h (1 Bft) S 0,00 h 0,025 mm 0 W/m 17,7 C 19,6 C 2,3 km/h (1 Bft)
21/06/2007 02:00 19,5 C 91 % 1011,1 hPa 0,0 l/m 6,4 km/h (2 Bft) NO 0,00 h 0,025 mm 0 W/m 17,9 C 19,5 C 9,0 km/h (2 Bft)
21/06/2007 03:00 19,3 C 89 % 1010,3 hPa 0,0 l/m 3,6 km/h (1 Bft) S-SO 0,00 h 0,025 mm 0 W/m 17,4 C 19,3 C 5,2 km/h (1 Bft)
21/06/2007 04:00 18,7 C 90 % 1010,4 hPa 0,0 l/m 1,0 km/h (0 Bft) S-SO 0,00 h 0,025 mm 0 W/m 17,0 C 18,7 C 1,6 km/h (1 Bft)
21/06/2007 05:00 18,4 C 91 % 1010,8 hPa 0,0 l/m 3,2 km/h (1 Bft) O-NO 0,00 h 0,025 mm 8 W/m 16,9 C 18,4 C 4,2 km/h (1 Bft)
21/06/2007 06:00 18,2 C 92 % 1010,5 hPa 0,0 l/m 0,7 km/h (0 Bft) NO 0,20 h 0,000 mm 44 W/m 16,8 C 18,2 C 1,7 km/h (1 Bft)
21/06/2007 07:00 19,3 C 91 % 1011,4 hPa 0,0 l/m 3,8 km/h (1 Bft) O-NO 0,10 h 0,025 mm 78 W/m 17,9 C 19,3 C 5,9 km/h (2 Bft)
21/06/2007 08:00 21,6 C 83 % 1011,4 hPa 0,0 l/m 1,0 km/h (0 Bft) N 0,40 h 0,051 mm 240 W/m 18,5 C 21,6 C 2,5 km/h (1 Bft)
21/06/2007 09:00 22,9 C 78 % 1011,5 hPa 0,0 l/m 3,4 km/h (1 Bft) E-NE 0,43 h 0,152 mm 374 W/m 18,8 C 22,9 C 5,7 km/h (1 Bft)
21/06/2007 10:00 24,9 C 71 % 1011,3 hPa 0,0 l/m 4,5 km/h (1 Bft) E-NE 0,97 h 0,254 mm 638 W/m 19,3 C 24,9 C 7,4 km/h (2 Bft)
21/06/2007 11:00 26,4 C 68 % 1011,1 hPa 0,0 l/m 7,0 km/h (2 Bft) E 0,93 h 0,432 mm 758 W/m 19,9 C 26,4 C 10,9 km/h (2 Bft)
21/06/2007 12:00 27,6 C 65 % 1011,0 hPa 0,0 l/m 9,4 km/h (2 Bft) E 1,00 h 0,533 mm 829 W/m 20,3 C 27,6 C 14,3 km/h (3 Bft)
21/06/2007 13:00 27,4 C 66 % 1011,3 hPa 0,0 l/m 13,4 km/h (3 Bft) E-NE 1,00 h 0,584 mm 860 W/m 20,4 C 27,4 C 19,0 km/h (3 Bft)
21/06/2007 14:00 27,7 C 65 % 1011,3 hPa 0,0 l/m 10,3 km/h (2 Bft) E 1,00 h 0,635 mm 852 W/m 20,4 C 27,7 C 16,2 km/h (3 Bft)
21/06/2007 15:00 26,8 C 66 % 1011,3 hPa 0,0 l/m 7,2 km/h (2 Bft) S 1,00 h 0,610 mm 767 W/m 20,0 C 26,8 C 11,9 km/h (2 Bft)
21/06/2007 16:00 27,2 C 68 % 1010,8 hPa 0,0 l/m 9,4 km/h (2 Bft) E-NE 1,00 h 0,533 mm 657 W/m 20,8 C 27,2 C 13,8 km/h (3 Bft)
21/06/2007 17:00 26,2 C 73 % 1010,5 hPa 0,0 l/m 5,4 km/h (1 Bft) E-NE 1,00 h 0,483 mm 516 W/m 21,0 C 26,2 C 8,6 km/h (2 Bft)
21/06/2007 18:00 24,9 C 78 % 1010,2 hPa 0,0 l/m 6,1 km/h (2 Bft) E 0,73 h 0,356 mm 299 W/m 20,7 C 24,9 C 9,5 km/h (2 Bft)
21/06/2007 19:00 23,9 C 81 % 1010,2 hPa 0,0 l/m 6,5 km/h (2 Bft) E 1,00 h 0,203 mm 196 W/m 20,4 C 23,9 C 9,5 km/h (2 Bft)
21/06/2007 20:00 22,4 C 85 % 1010,2 hPa 0,0 l/m 1,9 km/h (1 Bft) E 0,23 h 0,152 mm 50 W/m 19,8 C 22,4 C 3,6 km/h (1 Bft)
21/06/2007 21:00 21,0 C 90 % 1010,4 hPa 0,0 l/m 1,1 km/h (1 Bft) S-SE 0,00 h 0,051 mm 7 W/m 19,3 C 21,0 C 2,2 km/h (1 Bft)
21/06/2007 22:00 20,3 C 93 % 1010,8 hPa 0,0 l/m 0,4 km/h (0 Bft) S 0,00 h 0,000 mm 0 W/m 19,1 C 20,3 C 0,9 km/h (0 Bft)
21/06/2007 23:00 19,9 C 93 % 1010,9 hPa 0,0 l/m 0,9 km/h (0 Bft) SO 0,00 h 0,025 mm 0 W/m 18,8 C 19,9 C 1,5 km/h (1 Bft)
22/06/2007 00:00 19,6 C 94 % 1010,9 hPa 0,0 l/m 1,7 km/h (1 Bft) NO 0,00 h 0,000 mm 0 W/m 18,6 C 19,6 C 3,0 km/h (1 Bft)
22/06/2007 01:00 18,9 C 94 % 1010,8 hPa 0,0 l/m 2,0 km/h (1 Bft) O-SO 0,00 h 0,000 mm 0 W/m 17,9 C 18,9 C 3,1 km/h (1 Bft)
22/06/2007 02:00 18,6 C 90 % 1010,9 hPa 0,0 l/m 2,0 km/h (1 Bft) NO 0,00 h 0,025 mm 0 W/m 16,9 C 18,6 C 3,8 km/h (1 Bft)
22/06/2007 03:00 18,9 C 87 % 1010,8 hPa 0,0 l/m 0,9 km/h (0 Bft) N-NO 0,00 h 0,025 mm 0 W/m 16,6 C 18,9 C 1,9 km/h (1 Bft)
22/06/2007 04:00 19,0 C 87 % 1011,0 hPa 0,0 l/m 0,6 km/h (0 Bft) NE 0,00 h 0,025 mm 0 W/m 16,9 C 19,0 C 1,5 km/h (1 Bft)
22/06/2007 05:00 18,8 C 90 % 1011,0 hPa 0,0 l/m 2,7 km/h (1 Bft) O-NO 0,00 h 0,025 mm 7 W/m 17,1 C 18,8 C 3,8 km/h (1 Bft)
22/06/2007 06:00 18,3 C 91 % 1011,1 hPa 0,0 l/m 1,5 km/h (1 Bft) O-NO 0,05 h 0,000 mm 24 W/m 16,8 C 18,3 C 2,5 km/h (1 Bft)
22/06/2007 07:00 19,0 C 87 % 1011,0 hPa 0,0 l/m 1,1 km/h (0 Bft) NO 0,33 h 0,025 mm 121 W/m 16,8 C 19,0 C 2,6 km/h (1 Bft)
22/06/2007 08:00 21,5 C 79 % 1011,1 hPa 0,0 l/m 1,5 km/h (1 Bft) O 0,82 h 0,076 mm 332 W/m 17,8 C 21,5 C 3,2 km/h (1 Bft)
22/06/2007 09:00 24,0 C 67 % 1010,9 hPa 0,0 l/m 1,2 km/h (1 Bft) SE 0,72 h 0,203 mm 409 W/m 17,6 C 24,0 C 3,0 km/h (1 Bft)
22/06/2007 10:00 26,1 C 58 % 1010,8 hPa 0,0 l/m 5,2 km/h (1 Bft) E 1,00 h 0,254 mm 653 W/m 17,2 C 26,1 C 8,5 km/h (2 Bft)
22/06/2007 11:00 27,8 C 54 % 1010,6 hPa 0,0 l/m 7,7 km/h (2 Bft) E-NE 1,00 h 0,457 mm 774 W/m 17,7 C 27,8 C 11,5 km/h (2 Bft)
22/06/2007 12:00 28,6 C 48 % 1010,4 hPa 0,0 l/m 15,1 km/h (3 Bft) S 1,00 h 0,559 mm 875 W/m 16,4 C 28,6 C 21,3 km/h (4 Bft)
22/06/2007 13:00 28,7 C 44 % 1010,2 hPa 0,0 l/m 25,6 km/h (4 Bft) S 0,97 h 0,711 mm 875 W/m 15,2 C 28,7 C 34,4 km/h (5 Bft)
22/06/2007 14:00 28,9 C 42 % 1009,9 hPa 0,0 l/m 25,8 km/h (4 Bft) S-SO 1,00 h 0,813 mm 880 W/m 14,5 C 28,9 C 34,8 km/h (5 Bft)
22/06/2007 15:00 30,2 C 31 % 1009,6 hPa 0,0 l/m 24,5 km/h (4 Bft) SO 1,00 h 0,813 mm 803 W/m 11,2 C 30,2 C 32,4 km/h (5 Bft)
22/06/2007 16:00 30,3 C 28 % 1009,1 hPa 0,0 l/m 31,2 km/h (5 Bft) SO 1,00 h 0,838 mm 692 W/m 9,8 C 30,3 C 40,6 km/h (6 Bft)
22/06/2007 17:00 30,1 C 28 % 1008,7 hPa 0,0 l/m 28,9 km/h (5 Bft) SO 1,00 h 0,864 mm 547 W/m 9,6 C 30,1 C 38,0 km/h (5 Bft)
22/06/2007 18:00 29,2 C 28 % 1008,2 hPa 0,0 l/m 30,4 km/h (5 Bft) SO 0,92 h 0,737 mm 364 W/m 9,0 C 29,2 C 39,1 km/h (6 Bft)
22/06/2007 19:00 28,2 C 30 % 1008,2 hPa 0,0 l/m 24,7 km/h (4 Bft) SO 0,88 h 0,610 mm 210 W/m 8,9 C 28,2 C 32,2 km/h (5 Bft)
22/06/2007 20:00 26,6 C 31 % 1008,6 hPa 0,0 l/m 18,4 km/h (3 Bft) O-SO 0,22 h 0,432 mm 47 W/m 8,1 C 26,6 C 25,5 km/h (4 Bft)
22/06/2007 21:00 24,7 C 30 % 1009,1 hPa 0,0 l/m 19,3 km/h (3 Bft) O-SO 0,00 h 0,254 mm 6 W/m 5,8 C 24,7 C 25,9 km/h (4 Bft)
22/06/2007 22:00 23,4 C 33 % 1009,5 hPa 0,0 l/m 27,1 km/h (4 Bft) SO 0,00 h 0,229 mm 0 W/m 6,3 C 23,4 C 34,1 km/h (5 Bft)
22/06/2007 23:00 22,6 C 36 % 1009,7 hPa 0,0 l/m 28,0 km/h (4 Bft) O-SO 0,00 h 0,279 mm 0 W/m 6,8 C 22,6 C 34,7 km/h (5 Bft)
23/06/2007 00:00 21,7 C 41 % 1009,8 hPa 0,0 l/m 23,6 km/h (4 Bft) O-SO 0,00 h 0,254 mm 0 W/m 8,0 C 21,7 C 30,7 km/h (5 Bft)
23/06/2007 01:00 21,1 C 43 % 1009,7 hPa 0,0 l/m 27,2 km/h (4 Bft) O-SO 0,00 h 0,203 mm 0 W/m 8,1 C 21,1 C 34,4 km/h (5 Bft)
23/06/2007 02:00 20,9 C 44 % 1009,3 hPa 0,0 l/m 28,1 km/h (4 Bft) O-SO 0,00 h 0,229 mm 0 W/m 8,1 C 20,9 C 35,8 km/h (5 Bft)
23/06/2007 03:00 20,8 C 44 % 1009,1 hPa 0,0 l/m 29,9 km/h (5 Bft) O-SO 0,00 h 0,229 mm 0 W/m 8,0 C 20,8 C 40,0 km/h (6 Bft)
23/06/2007 04:00 19,5 C 49 % 1008,7 hPa 0,0 l/m 32,7 km/h (5 Bft) O-SO 0,00 h 0,229 mm 0 W/m 8,5 C 19,5 C 43,4 km/h (6 Bft)
23/06/2007 05:00 18,3 C 53 % 1009,0 hPa 0,0 l/m 19,7 km/h (3 Bft) O-SO 0,00 h 0,229 mm 5 W/m 8,6 C 18,3 C 30,6 km/h (5 Bft)
23/06/2007 06:00 17,6 C 55 % 1009,3 hPa 0,0 l/m 8,0 km/h (2 Bft) O-NO 0,00 h 0,127 mm 35 W/m 8,5 C 17,6 C 13,9 km/h (3 Bft)
23/06/2007 07:00 18,3 C 52 % 1009,5 hPa 0,0 l/m 12,8 km/h (3 Bft) O 0,43 h 0,076 mm 159 W/m 8,3 C 18,3 C 18,6 km/h (3 Bft)
23/06/2007 08:00 20,9 C 45 % 1009,7 hPa 0,0 l/m 12,8 km/h (3 Bft) O-SO 1,00 h 0,178 mm 381 W/m 8,5 C 20,9 C 17,1 km/h (3 Bft)
23/06/2007 09:00 22,6 C 43 % 1009,9 hPa 0,0 l/m 11,6 km/h (2 Bft) O-SO 1,00 h 0,330 mm 549 W/m 9,4 C 22,6 C 16,7 km/h (3 Bft)
23/06/2007 10:00 25,3 C 34 % 1010,0 hPa 0,0 l/m 6,1 km/h (2 Bft) E-NE 1,00 h 0,432 mm 696 W/m 8,3 C 25,3 C 9,7 km/h (2 Bft)
23/06/2007 11:00 26,3 C 44 % 1010,4 hPa 0,0 l/m 10,7 km/h (2 Bft) E 1,00 h 0,508 mm 801 W/m 13,1 C 26,3 C 16,6 km/h (3 Bft)
23/06/2007 12:00 27,1 C 44 % 1010,6 hPa 0,0 l/m 13,1 km/h (3 Bft) E-NE 1,00 h 0,610 mm 874 W/m 13,7 C 27,1 C 18,0 km/h (3 Bft)
23/06/2007 13:00 27,6 C 42 % 1010,7 hPa 0,0 l/m 13,3 km/h (3 Bft) E-NE 1,00 h 0,686 mm 899 W/m 13,6 C 27,6 C 19,4 km/h (3 Bft)
23/06/2007 14:00 27,5 C 46 % 1010,6 hPa 0,0 l/m 16,1 km/h (3 Bft) E-NE 1,00 h 0,711 mm 874 W/m 14,7 C 27,5 C 21,8 km/h (4 Bft)
23/06/2007 15:00 27,3 C 48 % 1010,6 hPa 0,0 l/m 14,1 km/h (3 Bft) E-NE 1,00 h 0,711 mm 804 W/m 15,3 C 27,3 C 19,9 km/h (4 Bft)
23/06/2007 16:00 27,3 C 49 % 1010,5 hPa 0,0 l/m 13,6 km/h (3 Bft) E-NE 1,00 h 0,635 mm 692 W/m 15,6 C 27,3 C 19,3 km/h (3 Bft)
23/06/2007 17:00 26,0 C 58 % 1010,7 hPa 0,0 l/m 12,4 km/h (3 Bft) E 1,00 h 0,559 mm 543 W/m 17,0 C 26,0 C 17,8 km/h (3 Bft)
23/06/2007 18:00 25,1 C 64 % 1010,8 hPa 0,0 l/m 7,0 km/h (2 Bft) E-NE 1,00 h 0,432 mm 376 W/m 17,7 C 25,1 C 11,9 km/h (2 Bft)
23/06/2007 19:00 23,2 C 74 % 1011,0 hPa 0,0 l/m 4,2 km/h (1 Bft) E 1,00 h 0,279 mm 204 W/m 18,4 C 23,2 C 8,8 km/h (2 Bft)
23/06/2007 20:00 21,3 C 82 % 1011,5 hPa 0,0 l/m 2,4 km/h (1 Bft) SE 0,15 h 0,152 mm 48 W/m 18,1 C 21,3 C 5,4 km/h (1 Bft)
23/06/2007 21:00 19,8 C 88 % 1012,1 hPa 0,0 l/m 4,2 km/h (1 Bft) S 0,02 h 0,051 mm 7 W/m 17,7 C 19,8 C 6,0 km/h (2 Bft)
23/06/2007 22:00 19,0 C 90 % 1012,6 hPa 0,0 l/m 4,0 km/h (1 Bft) S 0,00 h 0,025 mm 0 W/m 17,3 C 19,0 C 5,3 km/h (1 Bft)
23/06/2007 23:00 18,6 C 92 % 1012,7 hPa 0,0 l/m 4,8 km/h (1 Bft) O-SO 0,00 h 0,025 mm 0 W/m 17,3 C 18,6 C 6,9 km/h (2 Bft)
24/06/2007 00:00 18,0 C 93 % 1012,7 hPa 0,0 l/m 5,9 km/h (2 Bft) O-NO 0,00 h 0,025 mm 0 W/m 16,9 C 18,0 C 8,0 km/h (2 Bft)
24/06/2007 01:00 17,7 C 94 % 1013,2 hPa 0,0 l/m 4,9 km/h (1 Bft) O 0,00 h 0,025 mm 0 W/m 16,7 C 17,7 C 6,7 km/h (2 Bft)
24/06/2007 02:00 17,8 C 95 % 1013,6 hPa 0,0 l/m 5,2 km/h (1 Bft) O 0,00 h 0,025 mm 0 W/m 16,9 C 17,8 C 7,3 km/h (2 Bft)
24/06/2007 03:00 17,9 C 95 % 1013,5 hPa 0,0 l/m 0,1 km/h (0 Bft) O 0,00 h 0,025 mm 0 W/m 17,0 C 17,9 C 0,5 km/h (0 Bft)
24/06/2007 04:00 17,0 C 94 % 1013,3 hPa 0,0 l/m 2,1 km/h (1 Bft) O 0,00 h 0,000 mm 0 W/m 16,1 C 17,0 C 3,4 km/h (1 Bft)
24/06/2007 05:00 16,6 C 94 % 1013,7 hPa 0,0 l/m 4,7 km/h (1 Bft) O 0,00 h 0,000 mm 7 W/m 15,6 C 16,6 C 6,3 km/h (2 Bft)
24/06/2007 06:00 16,8 C 93 % 1014,0 hPa 0,0 l/m 4,2 km/h (1 Bft) O-NO 0,13 h 0,000 mm 35 W/m 15,5 C 16,8 C 6,5 km/h (2 Bft)
24/06/2007 07:00 17,8 C 87 % 1014,5 hPa 0,0 l/m 3,4 km/h (1 Bft) O-NO 0,00 h 0,025 mm 75 W/m 15,5 C 17,8 C 5,7 km/h (1 Bft)
24/06/2007 08:00 20,6 C 78 % 1014,5 hPa 0,0 l/m 1,8 km/h (1 Bft) O-NO 0,98 h 0,051 mm 350 W/m 16,6 C 20,6 C 4,0 km/h (1 Bft)
24/06/2007 09:00 22,8 C 68 % 1014,0 hPa 0,0 l/m 2,8 km/h (1 Bft) E 0,97 h 0,203 mm 502 W/m 16,5 C 22,8 C 5,5 km/h (1 Bft)
24/06/2007 10:00 23,9 C 64 % 1014,5 hPa 0,0 l/m 6,9 km/h (2 Bft) E 1,00 h 0,330 mm 648 W/m 16,6 C 23,9 C 11,1 km/h (2 Bft)
24/06/2007 11:00 24,4 C 63 % 1014,7 hPa 0,0 l/m 10,1 km/h (2 Bft) E 1,00 h 0,432 mm 767 W/m 16,9 C 24,4 C 15,9 km/h (3 Bft)
24/06/2007 12:00 24,7 C 63 % 1015,0 hPa 0,0 l/m 11,2 km/h (2 Bft) E 1,00 h 0,533 mm 851 W/m 17,1 C 24,7 C 17,6 km/h (3 Bft)
24/06/2007 13:00 25,1 C 66 % 1015,1 hPa 0,0 l/m 11,2 km/h (2 Bft) E 0,98 h 0,584 mm 911 W/m 18,3 C 25,1 C 18,4 km/h (3 Bft)
24/06/2007 14:00 24,7 C 69 % 1014,7 hPa 0,0 l/m 9,1 km/h (2 Bft) E 0,50 h 0,610 mm 637 W/m 18,7 C 24,7 C 16,7 km/h (3 Bft)
24/06/2007 15:00 25,3 C 65 % 1014,7 hPa 0,0 l/m 12,5 km/h (3 Bft) E-NE 0,97 h 0,432 mm 799 W/m 18,3 C 25,3 C 19,3 km/h (3 Bft)
24/06/2007 16:00 24,6 C 68 % 1014,3 hPa 0,0 l/m 7,6 km/h (2 Bft) E 0,93 h 0,559 mm 662 W/m 18,2 C 24,6 C 14,1 km/h (3 Bft)
24/06/2007 17:00 24,7 C 62 % 1013,8 hPa 0,0 l/m 5,3 km/h (1 Bft) E 1,00 h 0,432 mm 523 W/m 17,0 C 24,7 C 9,1 km/h (2 Bft)
24/06/2007 18:00 24,6 C 60 % 1013,3 hPa 0,0 l/m 5,4 km/h (1 Bft) E-NE 1,00 h 0,356 mm 354 W/m 16,4 C 24,6 C 8,3 km/h (2 Bft)
24/06/2007 19:00 23,5 C 66 % 1012,7 hPa 0,0 l/m 3,2 km/h (1 Bft) E 1,00 h 0,254 mm 190 W/m 16,7 C 23,5 C 5,7 km/h (1 Bft)
24/06/2007 20:00 22,1 C 67 % 1012,4 hPa 0,0 l/m 0,2 km/h (0 Bft) SE 0,17 h 0,152 mm 49 W/m 15,7 C 22,1 C 1,4 km/h (1 Bft)
24/06/2007 21:00 20,8 C 70 % 1012,2 hPa 0,0 l/m 1,0 km/h (0 Bft) SE 0,00 h 0,051 mm 6 W/m 15,0 C 20,8 C 1,7 km/h (1 Bft)
24/06/2007 22:00 20,3 C 73 % 1012,5 hPa 0,0 l/m 5,3 km/h (1 Bft) O 0,00 h 0,025 mm 0 W/m 15,2 C 20,3 C 7,3 km/h (2 Bft)
24/06/2007 23:00 19,4 C 78 % 1012,2 hPa 0,0 l/m 1,5 km/h (1 Bft) O 0,00 h 0,051 mm 0 W/m 15,5 C 19,4 C 2,3 km/h (1 Bft)
Min-Date _ 24/06/07 22/06/07 22/06/07 - 18/06/07 - - - - 22/06/07 24/06/07 18/06/07
_ Min-Heure 05:05 15:49 19:00 - 00:00 - - - - 21:45 05:05 00:01
Minimum _ 16,3 C 26 % 1008,1 hPa - 0,0 km/h (0 Bft) - - - - 5,1 C 16,3 C 0,0 km/h (0 Bft)
Max-Date _ 19/06/07 18/06/07 24/06/07 18/06/07 22/06/07 - 18/06/07 22/06/07 24/06/07 21/06/07 19/06/07 23/06/07
_ Max-Heure 12:52 00:45 12:30 00:00 16:02 - 06:01 17:00 13:47 17:54 12:52 04:14
Maximum _ 31,2 C 97 % 1015,2 hPa 0,0 l/m 41,8 km/h
SO (6 Bft)
- 0,02 h 0,864 mm 1072 W/m 21,5 C 31,2 C 56,3 km/h
O-SO (7 Bft)
Moyenne _ 23,0 C 69 % 1011,5 hPa #0,0 l/m 7,8 km/h (2 Bft) E #75:47 h #41,951 mm 412 W/m 16,2 C 23,0 C 11,4 km/h (2 Bft)
Roquefort les pins